Time;durP1;ratioP1;P1;durP2;ratioP2;P2;SDS_P1;SDS_P2;PMS_P1;PMS_P2;Temp;Humidity;BMP_temperature;BMP_pressure;BME280_temperature;BME280_humidity;BME280_pressure;Samples;Min_cycle;Max_cycle;Signal;HPM_P1;HPM_P2
2023/07/31 00:01:29;;;;;;;12.07;11.37;;;15.00;99.90;;;;;;5040266;28;20178;-42
2023/07/31 00:03:54;;;;;;;12.10;11.40;;;15.00;99.90;;;;;;5040710;28;20178;-40
2023/07/31 00:06:20;;;;;;;12.93;12.13;;;15.00;99.90;;;;;;5039506;28;20316;-39
2023/07/31 00:08:46;;;;;;;12.43;11.73;;;14.90;99.90;;;;;;5040043;28;20572;-39
2023/07/31 00:11:11;;;;;;;12.20;11.50;;;15.00;91.50;;;;;;5040376;28;20236;-41
2023/07/31 00:13:37;;;;;;;12.87;12.07;;;15.00;89.90;;;;;;5040066;28;20185;-40
2023/07/31 00:16:02;;;;;;;12.30;11.60;;;15.00;79.70;;;;;;5038918;28;20193;-42
2023/07/31 00:18:28;;;;;;;11.40;10.80;;;15.00;74.30;;;;;;5039934;28;20615;-42
2023/07/31 00:20:53;;;;;;;13.17;12.37;;;15.00;64.70;;;;;;5037231;28;20252;-40
2023/07/31 00:23:19;;;;;;;12.40;11.70;;;15.00;70.30;;;;;;5038574;28;20200;-41
2023/07/31 00:25:45;;;;;;;12.23;11.57;;;15.00;80.20;;;;;;5038929;28;20545;-41
2023/07/31 00:28:10;;;;;;;12.53;11.83;;;15.00;85.60;;;;;;5021225;28;20533;-41
2023/07/31 00:30:36;;;;;;;12.27;11.57;;;15.00;84.50;;;;;;5037044;28;20198;-40
2023/07/31 00:33:01;;;;;;;11.83;11.20;;;15.00;77.70;;;;;;5038262;28;20193;-39
2023/07/31 00:35:27;;;;;;;13.37;12.47;;;15.00;84.50;;;;;;5039042;28;20181;-41
2023/07/31 00:37:52;;;;;;;12.90;12.10;;;14.90;72.90;;;;;;5039695;28;20734;-41
2023/07/31 00:40:18;;;;;;;12.63;11.90;;;14.90;73.20;;;;;;5040322;28;20229;-43
2023/07/31 00:42:44;;;;;;;13.07;12.07;;;14.90;58.40;;;;;;5021832;28;20192;-40
2023/07/31 00:45:09;;;;;;;12.40;11.70;;;14.90;50.00;;;;;;5038575;28;20186;-40
2023/07/31 00:47:35;;;;;;;12.20;11.50;;;15.00;51.60;;;;;;5038315;28;20269;-40
2023/07/31 00:50:01;;;;;;;12.10;11.40;;;15.00;48.30;;;;;;5039927;28;20173;-41
2023/07/31 00:52:26;;;;;;;12.30;11.60;;;15.00;46.80;;;;;;5038576;28;20274;-41
2023/07/31 00:54:52;;;;;;;12.27;11.57;;;15.10;46.80;;;;;;5038447;28;20279;-39
2023/07/31 00:57:18;;;;;;;13.00;11.90;;;15.10;35.70;;;;;;5038774;28;20186;-39
2023/07/31 00:59:43;;;;;;;12.27;11.57;;;15.10;26.40;;;;;;5038995;28;20981;-42
2023/07/31 01:02:09;;;;;;;11.60;10.80;;;15.10;7.10;;;;;;5018969;28;20239;-41
2023/07/31 01:04:35;;;;;;;12.00;11.30;;;15.20;12.20;;;;;;5019965;28;20546;-41
2023/07/31 01:07:27;;;;;;;12.10;11.40;;;15.20;8.00;;;;;;5039165;28;20458;-53
2023/07/31 01:10:09;;;;;;;12.03;11.30;;;15.20;1.00;;;;;;5038665;28;20405;-53
2023/07/31 01:12:38;;;;;;;12.80;11.90;;;15.40;1.00;;;;;;5038662;28;20444;-54
2023/07/31 01:15:11;;;;;;;12.53;11.73;;;15.40;1.00;;;;;;5037882;28;20521;-51
2023/07/31 01:17:38;;;;;;;11.93;11.30;;;15.50;1.00;;;;;;5036945;28;20659;-49
2023/07/31 01:20:08;;;;;;;12.10;11.20;;;15.60;1.00;;;;;;5037058;28;20492;-53
2023/07/31 01:22:58;;;;;;;12.10;11.40;;;15.60;1.00;;;;;;5038683;28;20447;-51
2023/07/31 01:25:48;;;;;;;11.23;10.53;;;15.70;1.00;;;;;;5038041;28;20645;-49
2023/07/31 01:28:35;;;;;;;11.60;11.10;;;15.80;1.00;;;;;;5038580;28;20448;-49
2023/07/31 01:31:02;;;;;;;11.77;11.17;;;15.80;1.00;;;;;;5038675;28;20442;-47
2023/07/31 01:33:28;;;;;;;11.90;11.30;;;15.80;1.00;;;;;;5038218;28;20527;-50
2023/07/31 01:35:55;;;;;;;12.10;11.40;;;15.90;1.00;;;;;;5038407;28;20962;-49
2023/07/31 01:38:22;;;;;;;12.00;11.30;;;15.90;1.00;;;;;;5038638;28;20550;-51
2023/07/31 01:40:52;;;;;;;11.63;10.93;;;16.00;1.00;;;;;;5037928;28;21350;-53
2023/07/31 01:43:18;;;;;;;12.07;11.37;;;16.10;1.00;;;;;;5038214;28;20435;-51
2023/07/31 01:45:43;;;;;;;12.03;11.33;;;16.20;1.00;;;;;;5019488;28;20989;-49
2023/07/31 01:48:09;;;;;;;11.90;11.30;;;16.20;1.00;;;;;;5038167;28;20608;-52
2023/07/31 01:50:35;;;;;;;11.60;10.90;;;16.20;1.00;;;;;;5042772;28;20540;-51
2023/07/31 01:53:01;;;;;;;11.37;10.77;;;16.20;1.00;;;;;;5023348;28;20189;-46
2023/07/31 01:55:26;;;;;;;12.10;11.40;;;16.10;1.00;;;;;;5042732;28;20435;-48
2023/07/31 01:57:52;;;;;;;12.13;11.30;;;16.20;1.00;;;;;;5040874;28;20288;-49
2023/07/31 02:00:18;;;;;;;11.50;10.80;;;16.20;99.90;;;;;;5041311;28;20194;-51
2023/07/31 02:02:43;;;;;;;11.90;11.00;;;16.20;99.90;;;;;;5041401;28;20305;-50
2023/07/31 02:05:09;;;;;;;11.20;10.43;;;16.30;99.90;;;;;;5042225;28;20194;-46
2023/07/31 02:07:35;;;;;;;12.07;11.27;;;16.30;1.00;;;;;;5041819;28;20548;-50
2023/07/31 02:10:00;;;;;;;11.80;11.13;;;16.20;99.90;;;;;;5040359;28;20197;-49
2023/07/31 02:12:26;;;;;;;11.87;11.23;;;16.30;94.10;;;;;;5042312;28;20628;-50
2023/07/31 02:14:52;;;;;;;11.27;10.67;;;16.30;1.00;;;;;;5041231;28;20456;-52
2023/07/31 02:17:17;;;;;;;11.40;10.80;;;16.30;1.00;;;;;;5041838;28;20672;-49
2023/07/31 02:19:43;;;;;;;11.50;10.90;;;16.30;15.80;;;;;;5040603;28;20724;-53
2023/07/31 02:22:08;;;;;;;11.37;10.73;;;16.40;1.00;;;;;;5042475;28;20189;-50
2023/07/31 02:24:34;;;;;;;11.43;10.70;;;16.40;99.90;;;;;;5042406;28;20261;-49
2023/07/31 02:26:59;;;;;;;11.23;10.73;;;16.40;99.90;;;;;;5023409;28;20478;-50
2023/07/31 02:29:25;;;;;;;11.97;11.00;;;16.40;1.00;;;;;;5042623;28;20189;-50
2023/07/31 02:31:51;;;;;;;11.23;10.63;;;16.40;99.90;;;;;;5041872;28;20612;-46
2023/07/31 02:34:16;;;;;;;11.70;11.10;;;16.40;1.00;;;;;;5041574;28;20194;-51
2023/07/31 02:36:42;;;;;;;11.73;11.03;;;16.50;99.90;;;;;;5041666;28;20648;-49
2023/07/31 02:39:07;;;;;;;11.20;10.60;;;16.50;99.90;;;;;;5042127;28;20213;-49
2023/07/31 02:41:33;;;;;;;11.70;11.10;;;16.50;1.00;;;;;;5041969;28;20236;-51
2023/07/31 02:43:59;;;;;;;11.70;10.90;;;16.60;1.00;;;;;;5042042;28;20182;-50
2023/07/31 02:46:24;;;;;;;11.70;11.10;;;16.70;1.00;;;;;;5041525;28;20675;-51
2023/07/31 02:48:51;;;;;;;11.17;10.57;;;16.70;1.00;;;;;;5041641;28;21093;-52
2023/07/31 02:51:16;;;;;;;11.00;10.40;;;16.70;25.20;;;;;;5042280;28;20686;-48
2023/07/31 02:53:42;;;;;;;11.60;11.10;;;16.70;99.90;;;;;;5041235;28;20415;-51
2023/07/31 02:56:08;;;;;;;11.20;10.70;;;16.70;99.90;;;;;;5041488;28;20615;-47
2023/07/31 02:58:33;;;;;;;11.30;10.63;;;16.60;1.00;;;;;;5023636;28;20812;-49
2023/07/31 03:00:59;;;;;;;11.77;11.20;;;16.60;1.00;;;;;;5040369;28;20192;-52
2023/07/31 03:03:25;;;;;;;12.13;11.20;;;16.70;45.20;;;;;;5040633;28;20186;-53
2023/07/31 03:05:50;;;;;;;11.33;10.73;;;16.70;99.90;;;;;;5041709;28;20550;-48
2023/07/31 03:08:16;;;;;;;11.10;10.50;;;16.70;99.90;;;;;;5041363;28;20193;-53
2023/07/31 03:10:41;;;;;;;10.83;10.13;;;16.70;1.00;;;;;;5041120;28;20221;-50
2023/07/31 03:13:07;;;;;;;11.60;10.80;;;16.70;99.90;;;;;;5041381;28;20182;-49
2023/07/31 03:15:33;;;;;;;11.07;10.47;;;16.60;1.00;;;;;;5041224;28;20451;-45
2023/07/31 03:17:58;;;;;;;11.00;10.40;;;16.70;99.90;;;;;;5022842;28;20662;-49
2023/07/31 03:20:24;;;;;;;11.83;11.13;;;16.70;99.90;;;;;;5041452;28;20265;-49
2023/07/31 03:22:49;;;;;;;11.53;10.83;;;16.80;1.00;;;;;;5038446;28;20186;-52
2023/07/31 03:25:15;;;;;;;11.47;10.97;;;16.90;1.00;;;;;;5040241;28;20321;-50
2023/07/31 03:27:41;;;;;;;10.90;10.20;;;16.90;1.00;;;;;;5040534;28;20190;-49
2023/07/31 03:30:07;;;;;;;11.50;11.00;;;17.00;1.00;;;;;;5039890;28;20412;-50
2023/07/31 03:32:32;;;;;;;10.80;10.10;;;17.00;1.00;;;;;;5039620;28;20186;-49
2023/07/31 03:34:58;;;;;;;11.77;10.97;;;17.10;1.00;;;;;;5040751;28;20539;-50
2023/07/31 03:37:24;;;;;;;11.40;10.80;;;17.10;99.90;;;;;;5040810;28;20189;-53
2023/07/31 03:39:49;;;;;;;11.13;10.50;;;17.30;99.90;;;;;;5040657;28;20490;-52
2023/07/31 03:42:15;;;;;;;11.47;10.73;;;17.30;99.90;;;;;;5022762;28;20192;-49
2023/07/31 03:44:41;;;;;;;11.70;11.03;;;17.40;99.90;;;;;;5040359;28;20216;-47
2023/07/31 03:47:06;;;;;;;12.83;12.13;;;17.40;99.90;;;;;;5039896;28;20239;-47
2023/07/31 03:49:32;;;;;;;11.70;11.00;;;17.40;99.90;;;;;;5041006;28;20289;-44
2023/07/31 03:51:57;;;;;;;11.60;11.00;;;17.40;99.90;;;;;;5022373;28;20192;-52
2023/07/31 03:54:23;;;;;;;10.90;10.40;;;17.40;99.90;;;;;;5040598;28;20681;-50
2023/07/31 03:56:49;;;;;;;11.23;10.30;;;17.40;1.00;;;;;;5038705;28;20185;-40
2023/07/31 03:59:14;;;;;;;11.07;10.57;;;17.30;99.90;;;;;;5040152;28;20255;-39
2023/07/31 04:01:40;;;;;;;11.00;10.50;;;17.20;99.90;;;;;;5019863;28;20189;-51
2023/07/31 04:04:05;;;;;;;10.83;10.13;;;17.20;15.10;;;;;;5039292;28;20190;-49
2023/07/31 04:06:31;;;;;;;11.10;10.50;;;17.10;99.90;;;;;;5039658;28;20217;-52
2023/07/31 04:08:57;;;;;;;11.10;10.40;;;17.00;1.00;;;;;;5040136;28;20194;-50
2023/07/31 04:11:22;;;;;;;11.63;10.83;;;17.00;1.00;;;;;;5040159;28;20209;-51
2023/07/31 04:13:48;;;;;;;11.03;10.40;;;17.00;1.00;;;;;;5040633;28;20186;-50
2023/07/31 04:16:14;;;;;;;11.47;10.77;;;17.00;17.80;;;;;;5038262;28;20193;-51
2023/07/31 04:18:39;;;;;;;11.33;10.73;;;16.90;99.90;;;;;;5039251;28;20260;-53
2023/07/31 04:21:05;;;;;;;10.97;10.37;;;16.90;1.00;;;;;;5039661;28;20280;-52
2023/07/31 04:23:30;;;;;;;11.70;10.97;;;16.90;1.00;;;;;;5037763;28;21900;-54
2023/07/31 04:25:56;;;;;;;11.67;10.97;;;16.90;99.90;;;;;;5037150;28;20263;-53
2023/07/31 04:28:22;;;;;;;11.40;10.80;;;16.80;99.90;;;;;;5038709;28;20230;-49
2023/07/31 04:30:47;;;;;;;13.03;12.27;;;16.60;1.00;;;;;;5037544;28;20510;-52
2023/07/31 04:33:13;;;;;;;12.50;11.80;;;16.50;1.00;;;;;;5038326;28;20240;-52
2023/07/31 04:35:38;;;;;;;12.53;11.70;;;16.50;1.00;;;;;;5038619;28;20193;-45
2023/07/31 04:38:04;;;;;;;13.10;12.30;;;16.40;1.00;;;;;;5037436;28;20308;-51
2023/07/31 04:40:30;;;;;;;13.37;12.57;;;16.30;1.00;;;;;;5038623;28;20260;-45
2023/07/31 04:42:55;;;;;;;13.00;12.30;;;16.30;1.00;;;;;;5039250;28;20640;-47
2023/07/31 04:45:21;;;;;;;13.00;12.30;;;16.20;1.00;;;;;;5039008;28;20177;-50
2023/07/31 04:47:47;;;;;;;13.23;12.30;;;16.20;3.90;;;;;;5039244;28;20908;-47
2023/07/31 04:50:13;;;;;;;13.10;12.20;;;16.10;30.00;;;;;;5039720;28;20181;-50
2023/07/31 04:52:38;;;;;;;12.97;12.17;;;16.10;47.60;;;;;;5039287;28;20180;-48
2023/07/31 04:55:04;;;;;;;13.73;12.80;;;16.20;73.20;;;;;;5039617;28;20575;-51
2023/07/31 04:57:30;;;;;;;13.97;13.17;;;16.20;99.90;;;;;;5039472;28;20185;-49
2023/07/31 04:59:55;;;;;;;13.90;13.10;;;16.20;99.90;;;;;;5039757;28;21206;-51
2023/07/31 05:02:21;;;;;;;13.77;12.70;;;16.30;99.90;;;;;;5039522;28;20296;-50
2023/07/31 05:04:46;;;;;;;13.97;12.97;;;16.30;99.90;;;;;;5039138;28;20353;-52
2023/07/31 05:07:13;;;;;;;13.70;12.73;;;16.30;99.90;;;;;;5039033;28;20197;-48
2023/07/31 05:09:39;;;;;;;14.13;13.17;;;16.30;99.90;;;;;;5039361;28;20210;-46
2023/07/31 05:12:05;;;;;;;13.40;12.50;;;16.30;99.90;;;;;;5039417;28;20458;-53
2023/07/31 05:14:31;;;;;;;14.20;13.40;;;16.40;99.90;;;;;;5039338;28;20272;-49
2023/07/31 05:16:57;;;;;;;13.90;13.07;;;16.40;99.90;;;;;;5039298;28;20531;-49
2023/07/31 05:19:22;;;;;;;12.33;11.70;;;16.30;99.90;;;;;;5039436;28;20214;-48
2023/07/31 05:21:48;;;;;;;13.50;12.80;;;16.40;99.90;;;;;;5021149;28;20688;-51
2023/07/31 05:24:13;;;;;;;12.67;11.97;;;16.40;99.90;;;;;;5041387;28;20240;-50
2023/07/31 05:26:39;;;;;;;12.87;12.00;;;16.50;99.90;;;;;;5043320;28;20636;-48
2023/07/31 05:29:05;;;;;;;13.80;12.83;;;16.50;99.90;;;;;;5043629;28;20197;-46
2023/07/31 05:31:32;;;;;;;13.30;12.40;;;16.50;99.90;;;;;;5042654;28;20251;-48
2023/07/31 05:33:57;;;;;;;12.87;12.17;;;16.50;99.90;;;;;;5043575;28;20173;-51
2023/07/31 05:36:23;;;;;;;14.23;13.27;;;16.50;99.90;;;;;;5042169;28;20888;-50
2023/07/31 05:38:49;;;;;;;12.40;11.80;;;16.50;8.20;;;;;;5023655;28;20229;-47
2023/07/31 05:41:15;;;;;;;16.00;14.97;;;16.60;1.00;;;;;;5042651;28;20220;-54
2023/07/31 05:43:40;;;;;;;14.00;13.00;;;16.60;1.00;;;;;;5043282;28;20799;-51
2023/07/31 05:46:06;;;;;;;13.63;12.53;;;16.70;2.20;;;;;;5042811;28;20190;-52
2023/07/31 05:48:34;;;;;;;13.30;12.53;;;16.80;1.00;;;;;;5042596;28;20558;-50
2023/07/31 05:50:59;;;;;;;13.17;12.37;;;16.80;1.00;;;;;;5042865;28;20438;-43
2023/07/31 05:53:25;;;;;;;12.67;11.97;;;16.80;1.00;;;;;;5024294;28;20937;-51
2023/07/31 05:55:50;;;;;;;13.67;12.87;;;16.90;1.00;;;;;;5042774;28;20209;-53
2023/07/31 05:58:16;;;;;;;12.80;12.13;;;16.90;1.00;;;;;;5042446;28;20253;-53
2023/07/31 06:00:42;;;;;;;12.80;12.10;;;17.00;1.00;;;;;;5042519;28;20185;-49
2023/07/31 06:03:07;;;;;;;14.13;13.20;;;17.10;1.00;;;;;;5042872;28;20213;-50
2023/07/31 06:05:33;;;;;;;11.80;11.13;;;17.10;1.00;;;;;;5042141;28;20398;-49
2023/07/31 06:07:59;;;;;;;11.63;10.93;;;17.10;1.00;;;;;;5041487;28;20198;-50
2023/07/31 06:10:24;;;;;;;11.60;11.00;;;17.10;1.00;;;;;;5042572;28;20540;-49
2023/07/31 06:12:50;;;;;;;11.53;10.83;;;17.20;99.90;;;;;;5042792;28;20204;-47
2023/07/31 06:15:15;;;;;;;12.40;11.40;;;17.20;99.90;;;;;;5042794;28;20189;-49
2023/07/31 06:17:42;;;;;;;11.90;11.20;;;17.30;99.90;;;;;;5042604;28;20240;-48
2023/07/31 06:20:08;;;;;;;12.53;11.73;;;17.40;99.90;;;;;;5042622;28;20236;-47
2023/07/31 06:22:33;;;;;;;11.70;11.10;;;17.40;99.90;;;;;;5042434;28;20420;-51
2023/07/31 06:24:59;;;;;;;12.30;11.57;;;17.50;1.00;;;;;;5041988;28;20525;-53
2023/07/31 06:27:25;;;;;;;11.97;11.17;;;17.60;1.00;;;;;;5042397;28;20182;-53
2023/07/31 06:29:52;;;;;;;11.30;10.70;;;17.60;1.00;;;;;;5042293;28;20648;-50
2023/07/31 06:32:18;;;;;;;11.60;10.90;;;17.70;1.00;;;;;;5042029;28;20231;-50
2023/07/31 06:34:43;;;;;;;11.50;10.80;;;17.80;80.20;;;;;;5042060;28;20436;-51
2023/07/31 06:37:09;;;;;;;11.40;10.80;;;17.80;1.00;;;;;;5041180;28;20444;-49
2023/07/31 06:39:35;;;;;;;11.50;10.90;;;17.80;1.00;;;;;;5041723;28;20339;-53
2023/07/31 06:42:00;;;;;;;11.90;11.30;;;17.90;1.00;;;;;;5041797;28;20174;-50
2023/07/31 06:44:26;;;;;;;12.27;11.47;;;17.90;99.90;;;;;;5042006;28;20205;-52
2023/07/31 06:46:51;;;;;;;10.40;9.90;;;17.90;1.00;;;;;;5041897;28;20224;-48
2023/07/31 06:49:17;;;;;;;11.50;10.80;;;17.90;99.90;;;;;;5041720;28;20185;-51
2023/07/31 06:51:43;;;;;;;11.50;10.80;;;17.90;1.00;;;;;;5041693;28;20451;-50
2023/07/31 06:54:09;;;;;;;11.77;10.87;;;17.90;1.00;;;;;;5041519;28;20231;-50
2023/07/31 06:56:35;;;;;;;11.10;10.40;;;17.90;1.00;;;;;;5041914;28;20455;-46
2023/07/31 06:59:00;;;;;;;11.57;10.93;;;17.90;1.00;;;;;;5041442;28;20198;-43
2023/07/31 07:01:27;;;;;;;11.40;10.60;;;17.90;1.00;;;;;;5041877;28;20258;-51
2023/07/31 07:03:53;;;;;;;10.17;9.57;;;18.00;15.70;;;;;;5041357;28;20216;-51
2023/07/31 07:06:19;;;;;;;10.43;9.83;;;18.10;51.50;;;;;;5040689;28;20440;-54
2023/07/31 07:08:44;;;;;;;10.90;10.40;;;18.10;1.00;;;;;;5041316;28;20535;-50
2023/07/31 07:11:10;;;;;;;11.77;11.10;;;18.10;99.90;;;;;;5041213;28;20601;-51
2023/07/31 07:13:36;;;;;;;12.83;11.93;;;18.30;99.90;;;;;;5041418;28;20181;-53
2023/07/31 07:16:01;;;;;;;10.90;10.30;;;18.40;1.00;;;;;;5041024;28;20664;-51
2023/07/31 07:18:27;;;;;;;11.13;10.53;;;18.40;1.00;;;;;;5041184;28;20208;-51
2023/07/31 07:20:54;;;;;;;11.97;11.07;;;18.60;99.90;;;;;;5023358;28;20640;-52
2023/07/31 07:23:20;;;;;;;11.53;10.93;;;18.50;99.90;;;;;;5040901;28;20190;-47
2023/07/31 07:25:47;;;;;;;11.27;10.57;;;18.60;99.90;;;;;;5041058;28;20556;-50
2023/07/31 07:28:13;;;;;;;11.07;10.47;;;18.60;1.00;;;;;;5041593;28;20867;-47
2023/07/31 07:30:39;;;;;;;11.13;10.33;;;18.70;92.50;;;;;;5038270;28;20440;-53
2023/07/31 07:33:05;;;;;;;11.30;10.70;;;18.70;1.00;;;;;;5040581;28;20518;-50
2023/07/31 07:35:33;;;;;;;11.40;10.80;;;18.80;1.00;;;;;;5040592;28;20566;-52
2023/07/31 07:37:58;;;;;;;10.47;9.90;;;18.90;1.00;;;;;;5040675;28;20461;-50
2023/07/31 07:40:24;;;;;;;10.70;10.10;;;19.10;1.00;;;;;;5040634;28;20926;-50
2023/07/31 07:42:50;;;;;;;11.57;10.97;;;19.10;99.90;;;;;;5040652;28;20662;-52
2023/07/31 07:45:16;;;;;;;11.33;10.73;;;19.20;99.90;;;;;;5040695;28;20181;-53
2023/07/31 07:47:42;;;;;;;11.40;10.70;;;19.30;99.90;;;;;;5039890;28;20950;-54
2023/07/31 07:50:08;;;;;;;11.13;10.40;;;19.40;1.00;;;;;;5041734;28;20174;-44
2023/07/31 07:52:34;;;;;;;11.10;10.50;;;19.40;1.00;;;;;;5022985;28;20451;-49
2023/07/31 07:55:00;;;;;;;11.43;10.63;;;19.40;1.00;;;;;;5040685;28;20902;-45
2023/07/31 07:57:26;;;;;;;11.03;10.40;;;19.30;1.00;;;;;;5040372;28;20389;-52
2023/07/31 07:59:51;;;;;;;11.27;10.47;;;19.30;1.00;;;;;;5038398;28;20559;-51
2023/07/31 08:02:17;;;;;;;12.33;11.63;;;19.40;1.00;;;;;;5038004;28;20450;-48
2023/07/31 08:04:43;;;;;;;11.47;10.87;;;19.30;1.00;;;;;;5039728;28;20590;-48
2023/07/31 08:07:12;;;;;;;11.10;10.50;;;19.40;1.00;;;;;;5040078;28;20189;-49
2023/07/31 08:09:37;;;;;;;11.77;11.07;;;19.40;1.00;;;;;;5040269;28;20578;-52
2023/07/31 08:12:04;;;;;;;11.73;10.93;;;19.40;1.00;;;;;;5040063;28;20428;-48
2023/07/31 08:14:29;;;;;;;11.43;10.67;;;19.60;1.00;;;;;;5040386;28;20181;-54
2023/07/31 08:16:55;;;;;;;11.00;10.50;;;19.70;99.90;;;;;;5039871;28;20431;-46
2023/07/31 08:19:21;;;;;;;11.43;10.83;;;19.80;1.00;;;;;;5040429;28;20202;-49
2023/07/31 08:21:47;;;;;;;11.10;10.40;;;19.90;99.90;;;;;;5040188;28;20481;-51
2023/07/31 08:24:12;;;;;;;11.17;10.50;;;20.10;99.90;;;;;;5038762;28;20599;-49
2023/07/31 08:26:38;;;;;;;11.27;10.67;;;20.20;99.90;;;;;;5039779;28;20243;-46
2023/07/31 08:29:03;;;;;;;10.73;10.23;;;20.40;99.90;;;;;;5039119;28;20196;-52
2023/07/31 08:31:29;;;;;;;11.67;10.97;;;20.40;99.90;;;;;;5039559;28;20221;-50
2023/07/31 08:33:56;;;;;;;11.30;10.60;;;20.30;99.90;;;;;;5039505;28;20247;-52
2023/07/31 08:36:22;;;;;;;11.70;11.00;;;20.20;99.90;;;;;;5039707;28;20181;-52
2023/07/31 08:38:47;;;;;;;11.60;11.00;;;20.30;99.90;;;;;;5039863;28;21075;-48
2023/07/31 08:41:13;;;;;;;12.00;11.20;;;20.30;99.90;;;;;;5022010;28;20181;-47
2023/07/31 08:43:39;;;;;;;11.00;10.50;;;20.30;99.90;;;;;;5022151;28;20474;-44
2023/07/31 08:46:05;;;;;;;11.13;10.43;;;20.40;99.90;;;;;;5039456;28;20182;-55
2023/07/31 08:48:33;;;;;;;12.37;11.57;;;20.40;87.70;;;;;;5039669;28;20239;-51
2023/07/31 08:50:58;;;;;;;11.80;11.20;;;20.40;82.00;;;;;;5040039;28;20427;-52
2023/07/31 08:53:24;;;;;;;11.90;11.30;;;20.40;52.90;;;;;;5039313;28;20879;-51
2023/07/31 08:55:53;;;;;;;12.30;11.70;;;20.10;13.60;;;;;;5039774;28;20198;-50
2023/07/31 08:58:20;;;;;;;12.63;11.67;;;20.10;39.10;;;;;;5037861;28;20201;-48
2023/07/31 09:00:47;;;;;;;12.20;11.60;;;20.10;30.00;;;;;;5039735;28;20416;-53
2023/07/31 09:03:18;;;;;;;11.80;11.20;;;20.20;32.50;;;;;;5039424;28;20427;-48
2023/07/31 09:05:46;;;;;;;12.20;11.60;;;20.00;14.50;;;;;;5039617;28;20400;-45
2023/07/31 09:08:14;;;;;;;11.87;11.27;;;20.00;29.20;;;;;;5039276;28;20987;-50
2023/07/31 09:10:45;;;;;;;11.30;10.80;;;20.00;54.90;;;;;;5039260;28;20502;-47
2023/07/31 09:13:11;;;;;;;11.40;10.80;;;20.10;36.70;;;;;;5039228;28;20493;-48
2023/07/31 09:15:37;;;;;;;12.20;11.40;;;20.00;31.70;;;;;;5039358;28;20419;-50
2023/07/31 09:18:05;;;;;;;11.20;10.60;;;20.00;39.90;;;;;;5039640;28;20467;-53
2023/07/31 09:20:34;;;;;;;11.10;10.50;;;20.00;14.20;;;;;;5021222;28;20420;-51
2023/07/31 09:23:11;;;;;;;11.37;10.77;;;20.10;1.90;;;;;;5038684;28;20778;-48
2023/07/31 09:25:38;;;;;;;12.23;11.50;;;20.10;16.80;;;;;;5019154;28;20468;-50
2023/07/31 09:28:06;;;;;;;11.87;11.10;;;20.10;35.80;;;;;;5019149;28;20779;-53
2023/07/31 09:30:47;;;;;;;11.90;11.20;;;20.20;12.00;;;;;;5019360;28;20422;-53
2023/07/31 09:33:13;;;;;;;12.10;11.40;;;20.30;1.00;;;;;;5019364;28;20424;-52
2023/07/31 09:35:40;;;;;;;12.50;11.70;;;20.30;1.00;;;;;;5019162;28;20911;-49
2023/07/31 09:38:11;;;;;;;11.77;11.07;;;20.30;1.00;;;;;;5019076;28;20228;-49
2023/07/31 09:40:39;;;;;;;11.23;10.60;;;20.20;1.00;;;;;;5019271;28;20922;-44
2023/07/31 09:43:07;;;;;;;12.37;11.67;;;20.30;1.00;;;;;;5018864;28;20474;-49
2023/07/31 09:45:38;;;;;;;10.70;10.10;;;20.40;1.00;;;;;;5001886;28;20604;-52
2023/07/31 09:48:11;;;;;;;11.57;10.87;;;20.40;1.00;;;;;;5019227;28;20836;-50
2023/07/31 09:50:42;;;;;;;13.10;12.20;;;20.50;1.00;;;;;;5018350;28;20416;-49
2023/07/31 09:53:08;;;;;;;12.30;11.60;;;20.40;1.00;;;;;;5018828;28;20453;-54
2023/07/31 09:55:34;;;;;;;11.50;10.70;;;20.40;1.00;;;;;;5018950;28;20935;-51
2023/07/31 09:58:04;;;;;;;11.30;10.70;;;20.50;1.00;;;;;;5018991;28;20923;-50
2023/07/31 10:00:30;;;;;;;10.87;10.27;;;20.40;1.00;;;;;;5019205;28;20452;-52
2023/07/31 10:02:59;;;;;;;11.80;11.20;;;20.40;1.00;;;;;;5018903;28;20414;-52
2023/07/31 10:05:31;;;;;;;11.80;11.00;;;20.40;1.00;;;;;;5018882;28;20410;-51
2023/07/31 10:07:57;;;;;;;11.20;10.60;;;20.30;1.00;;;;;;5019137;28;20417;-48
2023/07/31 10:10:24;;;;;;;11.83;11.17;;;20.40;1.00;;;;;;5021100;28;20413;-48
2023/07/31 10:12:52;;;;;;;11.73;11.00;;;20.60;1.00;;;;;;5021774;28;20444;-46
2023/07/31 10:15:19;;;;;;;11.50;10.90;;;20.60;1.00;;;;;;5022507;28;20498;-51
2023/07/31 10:17:47;;;;;;;11.17;10.57;;;20.60;1.00;;;;;;5022280;28;20933;-52
2023/07/31 10:20:13;;;;;;;11.70;11.10;;;20.80;1.00;;;;;;5005290;28;20500;-54
2023/07/31 10:22:40;;;;;;;11.53;10.93;;;20.90;1.00;;;;;;5022729;28;20453;-48
2023/07/31 10:25:08;;;;;;;11.67;11.07;;;20.80;1.00;;;;;;5037654;28;20464;-52
2023/07/31 10:27:36;;;;;;;11.80;11.10;;;20.70;1.00;;;;;;5042353;28;20534;-50
2023/07/31 10:30:09;;;;;;;10.73;10.13;;;20.70;1.00;;;;;;5041638;28;20420;-51
2023/07/31 10:32:35;;;;;;;11.13;10.53;;;20.60;1.00;;;;;;5042225;28;20420;-52
2023/07/31 10:35:03;;;;;;;12.20;11.57;;;20.70;1.00;;;;;;5023725;28;20521;-47
2023/07/31 10:37:36;;;;;;;12.50;11.80;;;20.80;1.00;;;;;;5014814;28;20517;-45
2023/07/31 10:40:04;;;;;;;12.27;11.47;;;20.80;1.00;;;;;;5041412;28;20813;-52
2023/07/31 10:42:35;;;;;;;12.43;11.50;;;20.90;1.00;;;;;;5041054;28;20433;-50
2023/07/31 10:45:04;;;;;;;10.60;10.10;;;21.00;1.00;;;;;;5041516;28;20922;-49
2023/07/31 10:47:30;;;;;;;11.57;10.97;;;21.10;1.00;;;;;;5040292;28;20453;-48
2023/07/31 10:50:20;;;;;;;12.50;11.80;;;21.00;1.00;;;;;;5041807;28;20421;-45
2023/07/31 10:52:57;;;;;;;12.53;11.73;;;21.00;1.00;;;;;;5041785;28;20653;-51
2023/07/31 10:55:43;;;;;;;11.63;11.03;;;21.10;1.00;;;;;;5041460;28;20424;-50
2023/07/31 10:58:11;;;;;;;11.13;10.63;;;21.20;1.00;;;;;;5041846;28;20786;-50
2023/07/31 11:00:42;;;;;;;11.00;10.50;;;21.40;1.00;;;;;;5042016;28;20769;-50
2023/07/31 11:03:15;;;;;;;12.03;11.23;;;21.40;1.00;;;;;;5041529;28;20949;-50
2023/07/31 11:05:54;;;;;;;11.60;11.00;;;21.40;1.00;;;;;;5041591;28;20715;-52
2023/07/31 11:08:28;;;;;;;11.70;11.10;;;21.40;1.00;;;;;;5041264;28;20412;-50
2023/07/31 11:11:03;;;;;;;11.20;10.60;;;21.50;1.00;;;;;;5024623;28;20761;-52
2023/07/31 11:13:41;;;;;;;12.00;11.40;;;21.60;1.00;;;;;;5041392;28;20651;-48
2023/07/31 11:16:07;;;;;;;11.00;10.40;;;21.70;1.00;;;;;;5040479;28;20712;-49
2023/07/31 11:18:33;;;;;;;11.40;10.80;;;21.70;1.00;;;;;;5041268;28;20825;-50
2023/07/31 11:20:58;;;;;;;12.97;12.27;;;21.60;1.00;;;;;;5040232;28;20420;-52
2023/07/31 11:23:24;;;;;;;11.77;11.17;;;21.50;1.00;;;;;;5041197;28;20586;-55
2023/07/31 11:25:52;;;;;;;11.00;10.47;;;21.40;1.00;;;;;;5041277;28;20179;-49
2023/07/31 11:28:19;;;;;;;10.80;10.30;;;21.40;1.00;;;;;;5040884;28;20196;-49
2023/07/31 11:30:46;;;;;;;11.70;10.90;;;21.20;1.00;;;;;;5041011;28;20409;-48
2023/07/31 11:33:13;;;;;;;11.73;11.23;;;21.10;1.00;;;;;;5041348;28;20420;-48
2023/07/31 11:35:47;;;;;;;12.93;11.90;;;21.00;1.00;;;;;;5040988;28;20489;-50
2023/07/31 11:38:23;;;;;;;11.97;11.37;;;20.80;1.00;;;;;;5041028;28;20461;-50
2023/07/31 11:40:49;;;;;;;10.70;10.20;;;20.60;1.00;;;;;;5040217;28;20440;-52
2023/07/31 11:43:17;;;;;;;12.00;11.30;;;20.50;1.00;;;;;;5021892;28;20954;-46
2023/07/31 11:45:48;;;;;;;10.97;10.37;;;20.60;1.00;;;;;;5040823;28;20430;-48
2023/07/31 11:48:26;;;;;;;11.10;10.50;;;20.70;1.00;;;;;;5040932;28;20515;-52
2023/07/31 11:50:53;;;;;;;10.83;10.33;;;20.90;1.00;;;;;;5040748;28;20679;-41
2023/07/31 11:53:26;;;;;;;11.50;10.90;;;21.20;1.00;;;;;;5040436;28;20910;-41
2023/07/31 11:55:52;;;;;;;10.93;10.33;;;21.40;1.00;;;;;;5040583;28;20424;-43
2023/07/31 11:58:19;;;;;;;11.70;11.10;;;21.70;1.00;;;;;;5040662;28;20471;-40
2023/07/31 12:00:46;;;;;;;10.50;10.00;;;21.90;1.00;;;;;;5022530;28;20190;-46
2023/07/31 12:03:14;;;;;;;10.83;10.27;;;22.20;1.00;;;;;;5039662;28;20579;-40
2023/07/31 12:05:40;;;;;;;10.70;10.20;;;22.40;1.00;;;;;;5040311;28;21341;-46
2023/07/31 12:08:11;;;;;;;11.63;11.03;;;22.60;1.00;;;;;;5040557;28;20413;-42
2023/07/31 12:10:37;;;;;;;11.40;10.80;;;22.80;1.00;;;;;;5040584;28;20208;-41
2023/07/31 12:13:04;;;;;;;11.50;10.90;;;22.80;1.00;;;;;;5040095;28;21303;-41
2023/07/31 12:15:41;;;;;;;10.47;9.87;;;22.90;1.00;;;;;;5039002;28;20472;-44
2023/07/31 12:18:19;;;;;;;10.73;10.23;;;23.00;1.00;;;;;;5039752;28;20519;-43
2023/07/31 12:20:47;;;;;;;11.33;10.83;;;22.90;1.00;;;;;;5023841;28;20478;-43
2023/07/31 12:23:15;;;;;;;10.80;10.30;;;22.80;1.00;;;;;;5022241;28;20428;-45
2023/07/31 12:25:42;;;;;;;10.63;10.03;;;23.00;1.00;;;;;;5040210;28;20426;-44
2023/07/31 12:28:11;;;;;;;10.90;10.40;;;22.90;1.00;;;;;;5039883;28;20463;-41
2023/07/31 12:30:38;;;;;;;10.63;10.13;;;23.00;1.00;;;;;;5022056;28;20511;-40
2023/07/31 12:33:13;;;;;;;10.27;9.77;;;23.00;1.00;;;;;;5039375;28;20424;-40